Aérodrome :
LOGIN :

S'inscrire | Disclaimer

   EN    FR    IT 

 










Légende :    VFR   VFR Marginal   IFR   IFR Intensif   IFR Très Intensif
Visi : 
Plafond : 
>= 8 km
>= 3000ft
5 à 8 km
1000 à 3000 ft
1500m à 5 km
500 à 1000 ft
800 à 1500m
200 à 500 ft
< 800m
< 200 ft
Symboles :   Orages  Brouillard  Fortes neiges  Fortes précipitations  Vent > 20 kt
SIGMETs :   Divers  Orages  Givrage  Turbulence  Onde Orograph.  Cendres Volcan.






- Altitude de l'aérodrome : 140 ft


ESTL - Ljungbyhed

DERNIER METAR :
  • 200350Z AUTO 14001KT 0200 R29L/0700N FG VV000 09/09 Q1023

METARs EXPIRÉS :
  • 200320Z AUTO 00000KT 0050 R29L/0225N FG VV000 08/08 Q1023
  • 200250Z AUTO 00000KT 0100 R29L/0400N FG VV000 08/08 Q1023
  • 200220Z AUTO 22002KT 0200 R29L/0600N FG VV000 08/08 Q1023
  • 200150Z AUTO 00000KT 0050 R29L/0200N FG VV000 08/08 Q1023
  • 200120Z AUTO 00000KT 0300 R29L/0900N FG VV000 08/08 Q1023
  • 200050Z AUTO 00000KT 0100 R29L/0400N FG VV000 07/07 Q1023

Prévision TAF périmée.



MET'MAP, la Météo Aéronautique d'un coup d'oeil ! - Copyright ORBIFLY Décembre 2007 - Disclaimer

ORBIFLY MET'MAP TEAM :

Programmation & Développement : Alexandra Zaïnal
Sur une idée originale de : Baudouin d'Aumeries
Assistance à la programmation : Marc-Olivier Méhu
Soutien technique & logistique : Manuel Goepfert

Contact : metmap@orbifly.com




SOURCES & CREDITS :

   NOAA